ENHD/HAU METAR and TAF weather

Enter ICAO airport designator
Station Type Date Time Source
ENHD METAR 2020/04/06 06:50 UTC NOAA

ENHD 060650Z 13022KT CAVOK 11/02 Q1012


Station Type Date Time Source
ENHD Decoded METAR 2020/04/06 06:50 UTC NOAA

Haugesund / Karmoy, Norway (ENHD) 59-21N 005-13E 24M
Apr 06, 2020 - 02:50 AM EDT / 2020.04.06 0650 UTC
Wind: from the SE (130 degrees) at 25 MPH (22 KT):0
Visibility: greater than 7 mile(s):0
Temperature: 51 F (11 C)
Dew Point: 35 F (2 C)
Relative Humidity: 53%
Pressure (altimeter): 29.88 in. Hg (1012 hPa)
ob: ENHD 060650Z 13022KT CAVOK 11/02 Q1012
cycle: 7

Station Type Date Time Source
ENHD TAF UTC NOAA

Error!

Example: see airport list